sensor_id;sensor_type;location;lat;lon;timestamp;pressure;altitude;pressure_sealevel;temperature;humidity
22649;BME280;11491;41.942;24.220;2023-06-14T06:49:05;89813.94;;;18.17;87.10
22649;BME280;11491;41.942;24.220;2023-06-14T06:57:13;89826.13;;;18.61;89.70
22649;BME280;11491;41.942;24.220;2023-06-14T06:59:45;89767.41;;;18.47;91.25
22649;BME280;11491;41.942;24.220;2023-06-14T07:02:12;89815.16;;;18.93;90.46
22649;BME280;11491;41.942;24.220;2023-06-14T07:04:39;89787.72;;;18.91;88.42
22649;BME280;11491;41.942;24.220;2023-06-14T07:07:06;89825.81;;;19.22;87.19
22649;BME280;11491;41.942;24.220;2023-06-14T07:09:35;89773.31;;;19.01;86.57
22649;BME280;11491;41.942;24.220;2023-06-14T07:12:02;89800.19;;;19.33;87.02
22649;BME280;11491;41.942;24.220;2023-06-14T07:17:33;89726.84;;;19.06;85.85
22649;BME280;11491;41.942;24.220;2023-06-14T07:20:01;89796.94;;;19.49;86.55
22649;BME280;11491;41.942;24.220;2023-06-14T07:22:38;89808.53;;;19.53;87.68
22649;BME280;11491;41.942;24.220;2023-06-14T07:25:06;89731.34;;;19.24;83.65
22649;BME280;11491;41.942;24.220;2023-06-14T07:27:34;89728.38;;;19.07;84.55
22649;BME280;11491;41.942;24.220;2023-06-14T07:30:01;89710.28;;;18.97;85.71
22649;BME280;11491;41.942;24.220;2023-06-14T07:32:28;89756.59;;;19.58;84.73
22649;BME280;11491;41.942;24.220;2023-06-14T07:34:56;89784.94;;;19.95;83.78
22649;BME280;11491;41.942;24.220;2023-06-14T07:37:23;89784.06;;;20.06;83.75
22649;BME280;11491;41.942;24.220;2023-06-14T07:39:50;89795.81;;;20.64;81.57
22649;BME280;11491;41.942;24.220;2023-06-14T07:42:17;89726.47;;;20.25;78.48
22649;BME280;11491;41.942;24.220;2023-06-14T07:44:43;89794.69;;;20.92;79.88
22649;BME280;11491;41.942;24.220;2023-06-14T07:47:10;89818.09;;;20.82;76.57
22649;BME280;11491;41.942;24.220;2023-06-14T07:49:37;89804.78;;;20.61;79.92
22649;BME280;11491;41.942;24.220;2023-06-14T07:52:07;89811.16;;;20.47;79.00
22649;BME280;11491;41.942;24.220;2023-06-14T07:54:34;89755.66;;;20.14;80.99
22649;BME280;11491;41.942;24.220;2023-06-14T07:57:01;89759.16;;;20.14;80.16
22649;BME280;11491;41.942;24.220;2023-06-14T07:59:28;89679.25;;;19.50;78.00
22649;BME280;11491;41.942;24.220;2023-06-14T08:01:55;89704.34;;;19.54;79.42
22649;BME280;11491;41.942;24.220;2023-06-14T08:04:22;89816.63;;;20.06;80.93
22649;BME280;11491;41.942;24.220;2023-06-14T08:06:53;89762.19;;;19.37;80.21
22649;BME280;11491;41.942;24.220;2023-06-14T08:15:21;89847.34;;;19.43;84.76
22649;BME280;11491;41.942;24.220;2023-06-14T08:17:50;89835.72;;;19.46;85.63
22649;BME280;11491;41.942;24.220;2023-06-14T08:28:37;89783.44;;;18.90;83.70
22649;BME280;11491;41.942;24.220;2023-06-14T08:45:12;89865.16;;;20.34;83.63
22649;BME280;11491;41.942;24.220;2023-06-14T08:47:40;89861.16;;;20.50;82.00
22649;BME280;11491;41.942;24.220;2023-06-14T08:50:07;89757.63;;;20.13;80.56
22649;BME280;11491;41.942;24.220;2023-06-14T08:52:38;89862.38;;;20.79;76.35
22649;BME280;11491;41.942;24.220;2023-06-14T08:57:53;89825.84;;;20.12;81.75
22649;BME280;11491;41.942;24.220;2023-06-14T09:00:21;89814.34;;;20.38;81.95
22649;BME280;11491;41.942;24.220;2023-06-14T09:02:49;89875.97;;;21.10;81.66
22649;BME280;11491;41.942;24.220;2023-06-14T09:05:23;89786.94;;;20.91;77.90
22649;BME280;11491;41.942;24.220;2023-06-14T09:07:50;89874.38;;;21.70;76.39
22649;BME280;11491;41.942;24.220;2023-06-14T09:10:18;89828.13;;;21.16;75.50
22649;BME280;11491;41.942;24.220;2023-06-14T09:12:45;89821.06;;;20.92;77.85
22649;BME280;11491;41.942;24.220;2023-06-14T09:15:14;89840.47;;;20.94;74.85
22649;BME280;11491;41.942;24.220;2023-06-14T09:17:42;89762.81;;;20.35;77.11
22649;BME280;11491;41.942;24.220;2023-06-14T09:20:10;89869.16;;;21.25;76.75
22649;BME280;11491;41.942;24.220;2023-06-14T09:22:39;89831.41;;;21.04;77.05
22649;BME280;11491;41.942;24.220;2023-06-14T09:25:07;89877.03;;;21.16;77.67
22649;BME280;11491;41.942;24.220;2023-06-14T09:27:34;89782.75;;;20.52;75.65
22649;BME280;11491;41.942;24.220;2023-06-14T09:30:02;89877.41;;;21.18;75.66
22649;BME280;11491;41.942;24.220;2023-06-14T09:32:30;89860.44;;;21.11;73.47
22649;BME280;11491;41.942;24.220;2023-06-14T09:34:57;89867.38;;;21.15;74.80
22649;BME280;11491;41.942;24.220;2023-06-14T09:37:31;89876.34;;;21.12;75.05
22649;BME280;11491;41.942;24.220;2023-06-14T09:39:58;89869.88;;;20.99;74.50
22649;BME280;11491;41.942;24.220;2023-06-14T09:42:25;89821.47;;;20.25;75.31
22649;BME280;11491;41.942;24.220;2023-06-14T09:44:55;89851.97;;;20.36;77.42
22649;BME280;11491;41.942;24.220;2023-06-14T09:47:23;89889.31;;;20.25;78.20
22649;BME280;11491;41.942;24.220;2023-06-14T09:49:52;89880.19;;;20.05;78.46
22649;BME280;11491;41.942;24.220;2023-06-14T09:52:22;89874.91;;;19.90;77.75
22649;BME280;11491;41.942;24.220;2023-06-14T09:54:49;89880.44;;;19.76;79.74
22649;BME280;11491;41.942;24.220;2023-06-14T09:57:20;89814.16;;;19.25;79.84
22649;BME280;11491;41.942;24.220;2023-06-14T10:00:05;89778.75;;;19.01;81.79
22649;BME280;11491;41.942;24.220;2023-06-14T10:02:40;89754.13;;;18.78;84.98
22649;BME280;11491;41.942;24.220;2023-06-14T10:08:27;89836.47;;;19.50;86.61
22649;BME280;11491;41.942;24.220;2023-06-14T10:10:58;89865.03;;;20.07;86.50
22649;BME280;11491;41.942;24.220;2023-06-14T10:13:43;89832.09;;;19.64;82.82
22649;BME280;11491;41.942;24.220;2023-06-14T10:16:45;89869.53;;;19.83;85.53
22649;BME280;11491;41.942;24.220;2023-06-14T10:22:47;89851.75;;;19.75;86.42
22649;BME280;11491;41.942;24.220;2023-06-14T10:25:27;89854.47;;;20.20;86.63
22649;BME280;11491;41.942;24.220;2023-06-14T10:28:03;89867.44;;;20.39;85.22
22649;BME280;11491;41.942;24.220;2023-06-14T10:30:31;89868.88;;;20.51;83.55
22649;BME280;11491;41.942;24.220;2023-06-14T10:33:03;89871.09;;;20.63;80.94
22649;BME280;11491;41.942;24.220;2023-06-14T10:35:31;89871.84;;;20.68;84.64
22649;BME280;11491;41.942;24.220;2023-06-14T10:38:06;89858.09;;;20.44;79.47
22649;BME280;11491;41.942;24.220;2023-06-14T10:40:36;89743.41;;;19.61;82.45
22649;BME280;11491;41.942;24.220;2023-06-14T10:43:20;89858.06;;;20.48;83.20
22649;BME280;11491;41.942;24.220;2023-06-14T10:46:16;89848.72;;;20.52;80.27
22649;BME280;11491;41.942;24.220;2023-06-14T10:48:44;89733.19;;;19.79;83.40
22649;BME280;11491;41.942;24.220;2023-06-14T10:51:18;89854.41;;;20.96;79.15
22649;BME280;11491;41.942;24.220;2023-06-14T10:53:47;89758.78;;;20.47;78.66
22649;BME280;11491;41.942;24.220;2023-06-14T10:56:26;89838.50;;;21.25;77.35
22649;BME280;11491;41.942;24.220;2023-06-14T10:58:53;89828.59;;;21.42;78.33
22649;BME280;11491;41.942;24.220;2023-06-14T11:01:31;89865.94;;;21.61;72.89
22649;BME280;11491;41.942;24.220;2023-06-14T11:04:07;89842.25;;;21.35;73.98
22649;BME280;11491;41.942;24.220;2023-06-14T11:06:48;89849.38;;;21.25;77.13
22649;BME280;11491;41.942;24.220;2023-06-14T11:09:37;89748.94;;;20.60;76.60
22649;BME280;11491;41.942;24.220;2023-06-14T11:12:15;89710.06;;;20.36;76.92
22649;BME280;11491;41.942;24.220;2023-06-14T11:14:42;89830.94;;;21.09;77.11
22649;BME280;11491;41.942;24.220;2023-06-14T11:17:12;89846.13;;;21.34;76.78
22649;BME280;11491;41.942;24.220;2023-06-14T11:19:39;89843.28;;;21.17;76.66
22649;BME280;11491;41.942;24.220;2023-06-14T11:22:05;89771.56;;;20.80;78.06
22649;BME280;11491;41.942;24.220;2023-06-14T11:24:33;89756.75;;;20.85;76.21
22649;BME280;11491;41.942;24.220;2023-06-14T11:26:59;89816.16;;;21.41;75.44
22649;BME280;11491;41.942;24.220;2023-06-14T11:29:29;89811.44;;;21.68;73.91
22649;BME280;11491;41.942;24.220;2023-06-14T11:31:55;89807.19;;;21.91;72.67
22649;BME280;11491;41.942;24.220;2023-06-14T11:34:22;89788.50;;;21.93;71.85
22649;BME280;11491;41.942;24.220;2023-06-14T11:36:49;89787.81;;;21.89;73.96
22649;BME280;11491;41.942;24.220;2023-06-14T11:39:16;89814.50;;;22.41;74.65
22649;BME280;11491;41.942;24.220;2023-06-14T11:41:44;89799.81;;;22.75;66.71
22649;BME280;11491;41.942;24.220;2023-06-14T11:44:11;89806.59;;;23.07;66.79
22649;BME280;11491;41.942;24.220;2023-06-14T11:46:39;89815.38;;;23.67;70.55
22649;BME280;11491;41.942;24.220;2023-06-14T11:49:07;89828.38;;;23.96;64.84
22649;BME280;11491;41.942;24.220;2023-06-14T11:51:35;89821.03;;;24.09;65.66
22649;BME280;11491;41.942;24.220;2023-06-14T11:54:03;89821.56;;;24.04;62.09
22649;BME280;11491;41.942;24.220;2023-06-14T11:56:30;89827.09;;;23.68;63.68
22649;BME280;11491;41.942;24.220;2023-06-14T11:58:58;89813.97;;;23.26;65.35
22649;BME280;11491;41.942;24.220;2023-06-14T12:01:25;89812.25;;;23.16;68.16
22649;BME280;11491;41.942;24.220;2023-06-14T12:03:54;89816.91;;;22.95;68.49
22649;BME280;11491;41.942;24.220;2023-06-14T12:06:27;89778.03;;;22.55;67.92
22649;BME280;11491;41.942;24.220;2023-06-14T12:08:58;89812.06;;;23.07;66.88
22649;BME280;11491;41.942;24.220;2023-06-14T12:11:32;89788.38;;;23.04;64.99
22649;BME280;11491;41.942;24.220;2023-06-14T12:14:00;89819.53;;;23.03;65.57
22649;BME280;11491;41.942;24.220;2023-06-14T12:16:30;89819.31;;;22.93;64.98
22649;BME280;11491;41.942;24.220;2023-06-14T12:19:08;89811.66;;;22.88;64.87
22649;BME280;11491;41.942;24.220;2023-06-14T12:21:37;89792.91;;;22.50;64.06
22649;BME280;11491;41.942;24.220;2023-06-14T12:24:06;89804.25;;;22.69;65.45
22649;BME280;11491;41.942;24.220;2023-06-14T12:26:33;89780.34;;;22.56;64.13
22649;BME280;11491;41.942;24.220;2023-06-14T12:29:01;89805.28;;;22.75;64.22
22649;BME280;11491;41.942;24.220;2023-06-14T12:31:28;89810.47;;;22.69;65.59
22649;BME280;11491;41.942;24.220;2023-06-14T12:33:55;89780.72;;;22.58;68.92
22649;BME280;11491;41.942;24.220;2023-06-14T12:36:24;89756.16;;;22.98;66.44
22649;BME280;11491;41.942;24.220;2023-06-14T12:38:55;89798.13;;;23.37;63.34
22649;BME280;11491;41.942;24.220;2023-06-14T12:41:22;89802.41;;;23.55;64.36
22649;BME280;11491;41.942;24.220;2023-06-14T12:43:49;89764.88;;;23.10;61.21
22649;BME280;11491;41.942;24.220;2023-06-14T12:46:17;89793.94;;;23.16;62.66
22649;BME280;11491;41.942;24.220;2023-06-14T12:48:44;89701.19;;;22.27;64.68
22649;BME280;11491;41.942;24.220;2023-06-14T12:51:10;89738.41;;;22.10;64.19
22649;BME280;11491;41.942;24.220;2023-06-14T12:53:39;89737.88;;;21.76;65.07
22649;BME280;11491;41.942;24.220;2023-06-14T12:56:06;89819.63;;;21.92;66.39
22649;BME280;11491;41.942;24.220;2023-06-14T12:58:33;89767.72;;;21.59;68.13
22649;BME280;11491;41.942;24.220;2023-06-14T13:00:59;89709.88;;;21.55;68.74
22649;BME280;11491;41.942;24.220;2023-06-14T13:03:26;89772.63;;;22.11;67.41
22649;BME280;11491;41.942;24.220;2023-06-14T13:05:53;89786.47;;;22.21;66.93
22649;BME280;11491;41.942;24.220;2023-06-14T13:08:20;89751.47;;;21.76;67.67
22649;BME280;11491;41.942;24.220;2023-06-14T13:10:49;89738.75;;;21.49;67.97
22649;BME280;11491;41.942;24.220;2023-06-14T13:13:15;89767.22;;;21.64;68.72
22649;BME280;11491;41.942;24.220;2023-06-14T13:15:42;89671.22;;;20.70;70.59
22649;BME280;11491;41.942;24.220;2023-06-14T13:18:11;89700.13;;;20.83;72.25
22649;BME280;11491;41.942;24.220;2023-06-14T13:20:39;89680.47;;;20.45;73.83
22649;BME280;11491;41.942;24.220;2023-06-14T13:23:07;89669.81;;;20.27;74.39
22649;BME280;11491;41.942;24.220;2023-06-14T13:25:35;89767.28;;;21.10;75.42
22649;BME280;11491;41.942;24.220;2023-06-14T13:28:04;89759.78;;;21.45;76.32
22649;BME280;11491;41.942;24.220;2023-06-14T13:30:32;89671.50;;;21.26;74.12
22649;BME280;11491;41.942;24.220;2023-06-14T13:32:59;89770.16;;;22.61;75.37
22649;BME280;11491;41.942;24.220;2023-06-14T13:35:26;89768.47;;;23.39;67.88
22649;BME280;11491;41.942;24.220;2023-06-14T13:37:53;89741.03;;;23.47;67.46
22649;BME280;11491;41.942;24.220;2023-06-14T13:40:20;89762.88;;;23.96;65.34
22649;BME280;11491;41.942;24.220;2023-06-14T13:42:46;89762.81;;;24.28;65.34
22649;BME280;11491;41.942;24.220;2023-06-14T13:45:15;89756.72;;;24.66;62.14
22649;BME280;11491;41.942;24.220;2023-06-14T13:47:42;89764.78;;;24.28;61.26
22649;BME280;11491;41.942;24.220;2023-06-14T13:50:09;89768.91;;;24.03;61.84
22649;BME280;11491;41.942;24.220;2023-06-14T13:52:36;89768.84;;;23.58;64.03
22649;BME280;11491;41.942;24.220;2023-06-14T13:55:03;89767.19;;;23.28;63.31
22649;BME280;11491;41.942;24.220;2023-06-14T13:57:30;89769.47;;;22.93;64.26
22649;BME280;11491;41.942;24.220;2023-06-14T13:59:57;89782.56;;;22.82;64.95
22649;BME280;11491;41.942;24.220;2023-06-14T14:02:27;89781.13;;;22.57;64.97
22649;BME280;11491;41.942;24.220;2023-06-14T14:04:55;89777.19;;;22.58;63.97
22649;BME280;11491;41.942;24.220;2023-06-14T14:07:22;89750.84;;;22.11;64.75
22649;BME280;11491;41.942;24.220;2023-06-14T14:09:49;89771.16;;;22.07;65.75
22649;BME280;11491;41.942;24.220;2023-06-14T14:12:16;89783.19;;;21.86;66.47
22649;BME280;11491;41.942;24.220;2023-06-14T14:14:43;89779.41;;;21.80;69.61
22649;BME280;11491;41.942;24.220;2023-06-14T14:17:10;89776.22;;;21.85;70.13
22649;BME280;11491;41.942;24.220;2023-06-14T14:19:38;89755.47;;;21.47;68.96
22649;BME280;11491;41.942;24.220;2023-06-14T14:22:05;89771.22;;;21.56;65.02
22649;BME280;11491;41.942;24.220;2023-06-14T14:24:32;89772.69;;;21.64;63.86
22649;BME280;11491;41.942;24.220;2023-06-14T14:26:59;89759.59;;;21.56;62.78
22649;BME280;11491;41.942;24.220;2023-06-14T14:29:26;89758.09;;;21.51;66.12
22649;BME280;11491;41.942;24.220;2023-06-14T14:31:54;89762.97;;;21.40;71.36
22649;BME280;11491;41.942;24.220;2023-06-14T14:34:21;89775.00;;;21.39;72.24
22649;BME280;11491;41.942;24.220;2023-06-14T14:36:50;89774.53;;;21.44;73.87
22649;BME280;11491;41.942;24.220;2023-06-14T14:39:16;89776.09;;;21.45;75.44
22649;BME280;11491;41.942;24.220;2023-06-14T14:41:43;89731.09;;;21.13;74.54
22649;BME280;11491;41.942;24.220;2023-06-14T14:44:10;89747.75;;;21.66;73.85
22649;BME280;11491;41.942;24.220;2023-06-14T14:46:37;89697.72;;;21.40;71.14
22649;BME280;11491;41.942;24.220;2023-06-14T14:49:04;89774.28;;;22.29;72.03
22649;BME280;11491;41.942;24.220;2023-06-14T14:51:31;89774.06;;;22.60;70.30
22649;BME280;11491;41.942;24.220;2023-06-14T14:53:59;89771.56;;;22.69;70.97
22649;BME280;11491;41.942;24.220;2023-06-14T14:56:26;89737.16;;;22.75;71.30
22649;BME280;11491;41.942;24.220;2023-06-14T14:58:53;89749.06;;;23.54;68.97
22649;BME280;11491;41.942;24.220;2023-06-14T15:01:19;89768.16;;;23.86;68.44
22649;BME280;11491;41.942;24.220;2023-06-14T15:03:46;89759.97;;;24.03;66.57
22649;BME280;11491;41.942;24.220;2023-06-14T15:06:13;89763.13;;;24.01;67.46
22649;BME280;11491;41.942;24.220;2023-06-14T15:08:40;89765.13;;;24.59;65.64
22649;BME280;11491;41.942;24.220;2023-06-14T15:11:08;89756.34;;;25.06;63.68
22649;BME280;11491;41.942;24.220;2023-06-14T15:13:35;89759.97;;;25.16;62.48
22649;BME280;11491;41.942;24.220;2023-06-14T15:16:01;89760.81;;;24.75;61.81
22649;BME280;11491;41.942;24.220;2023-06-14T15:18:28;89766.34;;;24.71;60.32
22649;BME280;11491;41.942;24.220;2023-06-14T15:20:55;89759.88;;;24.36;60.00
22649;BME280;11491;41.942;24.220;2023-06-14T15:23:22;89767.06;;;24.29;61.34
22649;BME280;11491;41.942;24.220;2023-06-14T15:25:48;89768.09;;;24.19;63.04
22649;BME280;11491;41.942;24.220;2023-06-14T15:28:18;89766.66;;;23.85;63.91
22649;BME280;11491;41.942;24.220;2023-06-14T15:30:47;89771.72;;;23.67;63.68
22649;BME280;11491;41.942;24.220;2023-06-14T15:33:13;89776.66;;;23.23;63.76
22649;BME280;11491;41.942;24.220;2023-06-14T15:35:40;89764.69;;;23.00;64.34
22649;BME280;11491;41.942;24.220;2023-06-14T15:38:07;89662.47;;;21.96;64.89
22649;BME280;11491;41.942;24.220;2023-06-14T15:40:34;89770.00;;;22.68;68.43
22649;BME280;11491;41.942;24.220;2023-06-14T15:43:00;89773.44;;;22.72;69.22
22649;BME280;11491;41.942;24.220;2023-06-14T15:45:28;89773.56;;;22.65;68.34
22649;BME280;11491;41.942;24.220;2023-06-14T15:47:56;89772.09;;;22.40;69.40
22649;BME280;11491;41.942;24.220;2023-06-14T15:50:23;89777.00;;;22.29;70.92
22649;BME280;11491;41.942;24.220;2023-06-14T15:52:50;89773.94;;;22.27;71.35
22649;BME280;11491;41.942;24.220;2023-06-14T15:55:17;89775.44;;;22.28;72.35
22649;BME280;11491;41.942;24.220;2023-06-14T15:57:43;89767.19;;;22.11;71.88
22649;BME280;11491;41.942;24.220;2023-06-14T16:00:11;89750.84;;;21.68;71.96
22649;BME280;11491;41.942;24.220;2023-06-14T16:02:39;89753.28;;;21.62;72.93
22649;BME280;11491;41.942;24.220;2023-06-14T16:05:07;89774.09;;;21.72;72.68
22649;BME280;11491;41.942;24.220;2023-06-14T16:07:33;89786.28;;;21.64;72.18
22649;BME280;11491;41.942;24.220;2023-06-14T16:10:00;89786.63;;;21.66;73.01
22649;BME280;11491;41.942;24.220;2023-06-14T16:12:27;89724.13;;;21.39;73.50
22649;BME280;11491;41.942;24.220;2023-06-14T16:14:54;89784.09;;;21.79;73.20
22649;BME280;11491;41.942;24.220;2023-06-14T16:17:20;89732.19;;;21.19;72.18
22649;BME280;11491;41.942;24.220;2023-06-14T16:19:49;89789.47;;;21.32;73.86
22649;BME280;11491;41.942;24.220;2023-06-14T16:22:15;89796.31;;;21.17;74.51
22649;BME280;11491;41.942;24.220;2023-06-14T16:24:42;89798.47;;;20.98;76.36
22649;BME280;11491;41.942;24.220;2023-06-14T16:27:09;89775.16;;;20.39;77.44
22649;BME280;11491;41.942;24.220;2023-06-14T16:29:38;89801.81;;;20.48;78.22
22649;BME280;11491;41.942;24.220;2023-06-14T16:32:07;89813.16;;;20.39;78.53
22649;BME280;11491;41.942;24.220;2023-06-14T16:34:34;89759.28;;;20.04;79.83
22649;BME280;11491;41.942;24.220;2023-06-14T16:37:02;89797.72;;;20.33;80.33
22649;BME280;11491;41.942;24.220;2023-06-14T16:39:29;89754.84;;;19.83;79.30
22649;BME280;11491;41.942;24.220;2023-06-14T16:41:56;89811.06;;;20.20;80.21
22649;BME280;11491;41.942;24.220;2023-06-14T16:44:23;89791.13;;;19.96;80.74
22649;BME280;11491;41.942;24.220;2023-06-14T16:46:50;89812.66;;;20.14;81.43
22649;BME280;11491;41.942;24.220;2023-06-14T16:49:17;89806.41;;;20.17;80.84
22649;BME280;11491;41.942;24.220;2023-06-14T16:51:44;89767.25;;;19.84;80.48
22649;BME280;11491;41.942;24.220;2023-06-14T16:54:12;89759.25;;;19.66;81.57
22649;BME280;11491;41.942;24.220;2023-06-14T16:56:39;89808.88;;;20.04;81.82
22649;BME280;11491;41.942;24.220;2023-06-14T16:59:06;89689.91;;;19.27;82.37
22649;BME280;11491;41.942;24.220;2023-06-14T17:01:33;89734.22;;;19.47;82.51
22649;BME280;11491;41.942;24.220;2023-06-14T17:03:59;89775.91;;;19.68;81.93
22649;BME280;11491;41.942;24.220;2023-06-14T17:06:26;89812.94;;;19.85;83.67
22649;BME280;11491;41.942;24.220;2023-06-14T17:08:53;89819.94;;;19.83;82.43
22649;BME280;11491;41.942;24.220;2023-06-14T17:11:22;89802.22;;;19.71;82.92
22649;BME280;11491;41.942;24.220;2023-06-14T17:13:48;89830.75;;;19.86;83.23
22649;BME280;11491;41.942;24.220;2023-06-14T17:16:15;89823.94;;;19.64;84.05
22649;BME280;11491;41.942;24.220;2023-06-14T17:18:42;89828.47;;;19.81;84.66
22649;BME280;11491;41.942;24.220;2023-06-14T17:21:09;89733.78;;;19.11;84.69
22649;BME280;11491;41.942;24.220;2023-06-14T17:23:36;89828.59;;;19.70;84.10
22649;BME280;11491;41.942;24.220;2023-06-14T17:26:03;89827.78;;;19.73;83.97
22649;BME280;11491;41.942;24.220;2023-06-14T17:28:31;89725.09;;;18.75;84.29
22649;BME280;11491;41.942;24.220;2023-06-14T17:31:00;89843.50;;;19.41;85.42
22649;BME280;11491;41.942;24.220;2023-06-14T17:33:28;89797.28;;;19.06;86.01
22649;BME280;11491;41.942;24.220;2023-06-14T17:35:55;89761.94;;;18.61;85.41
22649;BME280;11491;41.942;24.220;2023-06-14T17:38:22;89808.19;;;18.92;86.36
22649;BME280;11491;41.942;24.220;2023-06-14T17:40:50;89764.34;;;18.45;85.31
22649;BME280;11491;41.942;24.220;2023-06-14T17:43:19;89846.06;;;18.99;86.80
22649;BME280;11491;41.942;24.220;2023-06-14T17:45:50;89814.91;;;18.66;85.91
22649;BME280;11491;41.942;24.220;2023-06-14T17:48:17;89816.78;;;18.72;85.43
22649;BME280;11491;41.942;24.220;2023-06-14T17:50:44;89708.19;;;17.68;85.98
22649;BME280;11491;41.942;24.220;2023-06-14T17:53:17;89841.28;;;18.40;87.71
22649;BME280;11491;41.942;24.220;2023-06-14T17:58:36;89757.59;;;17.79;87.57
22649;BME280;11491;41.942;24.220;2023-06-14T18:01:08;89736.78;;;17.58;88.45
22649;BME280;11491;41.942;24.220;2023-06-14T18:03:38;89704.44;;;17.26;89.13
22649;BME280;11491;41.942;24.220;2023-06-14T18:06:23;89759.94;;;17.63;89.04
22649;BME280;11491;41.942;24.220;2023-06-14T18:09:21;89735.28;;;17.29;90.24
22649;BME280;11491;41.942;24.220;2023-06-14T18:11:50;89732.63;;;17.04;91.38
22649;BME280;11491;41.942;24.220;2023-06-14T18:14:18;89725.28;;;16.83;90.95
22649;BME280;11491;41.942;24.220;2023-06-14T18:25:37;89891.25;;;17.64;91.28
22649;BME280;11491;41.942;24.220;2023-06-14T18:28:07;89886.97;;;17.63;91.26
22649;BME280;11491;41.942;24.220;2023-06-14T18:30:34;89822.53;;;17.22;91.18
22649;BME280;11491;41.942;24.220;2023-06-14T18:33:05;89875.41;;;17.66;92.20
22649;BME280;11491;41.942;24.220;2023-06-14T18:35:32;89892.81;;;17.86;93.07
22649;BME280;11491;41.942;24.220;2023-06-14T18:38:03;89845.69;;;17.52;92.79
22649;BME280;11491;41.942;24.220;2023-06-14T18:46:57;89810.56;;;17.30;89.96
22649;BME280;11491;41.942;24.220;2023-06-14T18:49:25;89883.91;;;17.72;90.85
22649;BME280;11491;41.942;24.220;2023-06-14T18:51:54;89813.28;;;17.19;90.65
22649;BME280;11491;41.942;24.220;2023-06-14T18:54:24;89760.03;;;17.02;90.10
22649;BME280;11491;41.942;24.220;2023-06-14T18:56:52;89890.47;;;17.74;89.71
22649;BME280;11491;41.942;24.220;2023-06-14T18:59:21;89758.47;;;16.83;86.92
22649;BME280;11491;41.942;24.220;2023-06-14T19:07:42;89929.84;;;17.64;89.47
22649;BME280;11491;41.942;24.220;2023-06-14T19:26:31;89812.63;;;16.21;92.05
22649;BME280;11491;41.942;24.220;2023-06-14T19:38:04;89853.94;;;16.46;92.48
22649;BME280;11491;41.942;24.220;2023-06-14T19:58:22;89929.69;;;16.89;92.19
22649;BME280;11491;41.942;24.220;2023-06-14T20:00:54;89955.19;;;16.95;92.22
22649;BME280;11491;41.942;24.220;2023-06-14T20:03:21;89887.06;;;16.40;91.99
22649;BME280;11491;41.942;24.220;2023-06-14T20:05:48;89935.84;;;16.79;91.29
22649;BME280;11491;41.942;24.220;2023-06-14T20:08:16;89907.91;;;16.46;91.28
22649;BME280;11491;41.942;24.220;2023-06-14T20:10:47;89894.03;;;16.44;92.07
22649;BME280;11491;41.942;24.220;2023-06-14T20:13:14;89926.09;;;16.64;92.00
22649;BME280;11491;41.942;24.220;2023-06-14T20:15:46;89938.72;;;16.38;90.86
22649;BME280;11491;41.942;24.220;2023-06-14T20:18:41;89922.41;;;16.17;90.95
22649;BME280;11491;41.942;24.220;2023-06-14T20:21:21;89822.69;;;15.58;92.27
22649;BME280;11491;41.942;24.220;2023-06-14T20:23:49;89937.91;;;16.30;91.75
22649;BME280;11491;41.942;24.220;2023-06-14T20:26:17;89900.25;;;15.86;92.84
22649;BME280;11491;41.942;24.220;2023-06-14T20:29:03;89886.59;;;15.64;94.16
22649;BME280;11491;41.942;24.220;2023-06-14T20:31:32;89864.06;;;15.35;94.53
22649;BME280;11491;41.942;24.220;2023-06-14T20:33:59;89918.38;;;15.89;95.46
22649;BME280;11491;41.942;24.220;2023-06-14T20:36:26;89935.31;;;15.86;95.70
22649;BME280;11491;41.942;24.220;2023-06-14T20:38:55;89935.25;;;15.82;96.69
22649;BME280;11491;41.942;24.220;2023-06-14T20:41:22;89941.50;;;15.90;94.24
22649;BME280;11491;41.942;24.220;2023-06-14T20:44:05;89880.28;;;15.42;94.04
22649;BME280;11491;41.942;24.220;2023-06-14T20:46:48;89905.03;;;15.59;94.03
22649;BME280;11491;41.942;24.220;2023-06-14T20:49:15;89924.25;;;15.57;94.11
22649;BME280;11491;41.942;24.220;2023-06-14T20:51:44;89894.53;;;15.43;94.84
22649;BME280;11491;41.942;24.220;2023-06-14T20:54:15;89934.69;;;15.62;94.94
22649;BME280;11491;41.942;24.220;2023-06-14T20:56:45;89886.41;;;15.36;93.25
22649;BME280;11491;41.942;24.220;2023-06-14T20:59:12;89899.47;;;15.34;92.99
22649;BME280;11491;41.942;24.220;2023-06-14T21:02:20;89860.97;;;14.89;93.88
22649;BME280;11491;41.942;24.220;2023-06-14T21:05:04;89958.38;;;15.39;95.37
22649;BME280;11491;41.942;24.220;2023-06-14T21:08:02;89836.34;;;14.53;94.65
22649;BME280;11491;41.942;24.220;2023-06-14T21:10:43;89848.72;;;14.54;95.90
22649;BME280;11491;41.942;24.220;2023-06-14T21:13:15;89858.88;;;14.71;95.74
22649;BME280;11491;41.942;24.220;2023-06-14T21:15:43;89935.16;;;15.23;95.88
22649;BME280;11491;41.942;24.220;2023-06-14T22:25:55;89894.59;;;14.08;96.48
22649;BME280;11491;41.942;24.220;2023-06-14T22:31:20;89879.09;;;13.94;97.65
22649;BME280;11491;41.942;24.220;2023-06-14T22:44:26;89935.44;;;14.47;95.49
22649;BME280;11491;41.942;24.220;2023-06-14T23:48:59;89897.00;;;13.86;99.03
22649;BME280;11491;41.942;24.220;2023-06-14T23:51:31;89785.19;;;12.95;98.80
